»·PEaware :: N323CB KGPI-KGEG

N323CB :: KGPI-KGEG

FLIGHT INFORMATION

Flight Status: Arrived
Operator: Privately registered:
United States
More flights under this callsign
Pilot: Chris B. (7910)
Aircraft: Unknown
(P28U)
More flights by this aircraft type
Origin: KGPI Glacier Park Intl
United States
Destination: KGEG Spokane Intl
United States
More flights between these airports :: More routes between these airports
Route: +SKOTT2 SKOTT EYESE V448 KARPS GEG
File this flight plan on PilotEdge
Remarks:
Altitude:
(Current/Filed)
14,000ft
Speed:
(Current/Filed)
140kts
Departed: 03-Apr-18 03:43 PM
Arrived: 03-Apr-18 05:06 PM
Distance/Time
Traveled:
137nm/1:23
Distance/Time
To Go:
Arrived

Flight Plot

Page will automatically refresh every two minutes.

Flight plan parsing failed; only flown route is shown


Map Options




Map Legend


Flown Route
Filed Route
Departure Airport
Arrival Airport
Navaid (VOR, NDB)
Fix

Horizontal Profiles

Position Reports

Time Latitude Longitude Heading Altitude Ground
Speed
03-Apr-18 15:19 48.310561 -114.250481 178 2968ft 0kts
03-Apr-18 15:20 48.310561 -114.250481 178 2968ft 0kts
03-Apr-18 15:21 48.310561 -114.250481 178 2968ft 0kts
03-Apr-18 15:22 48.310561 -114.250481 178 2968ft 0kts
03-Apr-18 15:23 48.310561 -114.250481 178 2968ft 0kts
03-Apr-18 15:24 48.310561 -114.250481 178 2968ft 0kts
03-Apr-18 15:25 48.310561 -114.250481 178 2968ft 0kts
03-Apr-18 15:26 48.310561 -114.250481 178 2968ft 0kts
03-Apr-18 15:27 48.310561 -114.250481 178 2968ft 0kts
03-Apr-18 15:28 48.310561 -114.250481 178 2968ft 0kts
03-Apr-18 15:29 48.310561 -114.250481 178 2968ft 0kts
03-Apr-18 15:30 48.310561 -114.250481 178 2968ft 0kts
03-Apr-18 15:31 48.310487 -114.250510 217 2968ft 2kts
03-Apr-18 15:32 48.310771 -114.251529 30 2967ft 9kts
03-Apr-18 15:33 48.313373 -114.250404 34 2969ft 13kts
03-Apr-18 15:34 48.316148 -114.247509 33 2972ft 13kts
03-Apr-18 15:35 48.318449 -114.245609 325 2972ft 0kts
03-Apr-18 15:36 48.318449 -114.245609 325 2972ft 0kts
03-Apr-18 15:37 48.318449 -114.245609 325 2972ft 0kts
03-Apr-18 15:38 48.318449 -114.245609 325 2972ft 0kts
03-Apr-18 15:39 48.318449 -114.245609 325 2972ft 0kts
03-Apr-18 15:40 48.318449 -114.245609 325 2972ft 0kts
03-Apr-18 15:41 48.318546 -114.245764 308 2972ft 5kts
03-Apr-18 15:42 48.311145 -114.254395 209 3318ft 70kts
03-Apr-18 15:43 48.290628 -114.244075 155 4614ft 93kts
03-Apr-18 15:44 48.268140 -114.223056 157 5928ft 101kts
03-Apr-18 15:45 48.245094 -114.201520 158 7146ft 111kts
03-Apr-18 15:46 48.218943 -114.177073 158 8304ft 121kts
03-Apr-18 15:47 48.190741 -114.171929 199 9541ft 105kts
03-Apr-18 15:48 48.181880 -114.195403 263 10629ft 81kts
03-Apr-18 15:49 48.176305 -114.225958 260 11608ft 87kts
03-Apr-18 15:50 48.171362 -114.259952 263 12830ft 85kts
03-Apr-18 15:51 48.166729 -114.293253 264 13978ft 85kts
03-Apr-18 15:52 48.160524 -114.337989 263 14078ft 127kts
03-Apr-18 15:53 48.152862 -114.390171 262 14003ft 129kts
03-Apr-18 15:54 48.145436 -114.439702 263 13979ft 121kts
03-Apr-18 15:55 48.138312 -114.487007 263 14006ft 119kts
03-Apr-18 15:56 48.131241 -114.533841 263 13999ft 119kts
03-Apr-18 15:57 48.124160 -114.580504 263 14053ft 117kts
03-Apr-18 15:58 48.117072 -114.627202 263 14068ft 118kts
03-Apr-18 15:59 48.110308 -114.671551 262 14074ft 119kts
03-Apr-18 16:00 48.103064 -114.719230 261 14055ft 118kts
03-Apr-18 16:01 48.096211 -114.763781 261 13987ft 117kts
03-Apr-18 16:02 48.089083 -114.810109 261 13943ft 116kts
03-Apr-18 16:03 48.082127 -114.855153 261 13984ft 113kts
03-Apr-18 16:04 48.075209 -114.899863 261 14016ft 113kts
03-Apr-18 16:05 48.068278 -114.944547 261 14047ft 113kts
03-Apr-18 16:06 48.061219 -114.989952 261 14061ft 113kts
03-Apr-18 16:07 48.054167 -115.035171 261 14048ft 114kts
03-Apr-18 16:08 48.047139 -115.080104 261 14042ft 114kts
03-Apr-18 16:09 48.040046 -115.125328 261 14041ft 114kts
03-Apr-18 16:10 48.033140 -115.169247 261 14021ft 115kts
03-Apr-18 16:11 48.025856 -115.215450 261 13980ft 115kts
03-Apr-18 16:12 48.018547 -115.261828 260 13930ft 116kts
03-Apr-18 16:13 48.011149 -115.308362 260 13892ft 115kts
03-Apr-18 16:14 48.003794 -115.354578 260 13846ft 115kts
03-Apr-18 16:15 47.995924 -115.400400 259 13852ft 113kts
03-Apr-18 16:16 47.987563 -115.445711 259 13838ft 114kts
03-Apr-18 16:17 47.979154 -115.491097 259 13850ft 113kts
03-Apr-18 16:18 47.970816 -115.536012 259 13855ft 113kts
03-Apr-18 16:19 47.962482 -115.580785 259 13858ft 113kts
03-Apr-18 16:20 47.954104 -115.625687 259 13859ft 113kts
03-Apr-18 16:21 47.945965 -115.669162 258 13882ft 113kts
03-Apr-18 16:22 47.937560 -115.714011 258 13921ft 114kts
03-Apr-18 16:23 47.929054 -115.759254 258 13965ft 114kts
03-Apr-18 16:24 47.920552 -115.804403 258 14002ft 114kts
03-Apr-18 16:25 47.912030 -115.849580 258 13999ft 115kts
03-Apr-18 16:26 47.903403 -115.895155 258 13990ft 115kts
03-Apr-18 16:27 47.895664 -115.935959 258 13962ft 116kts
03-Apr-18 16:28 47.886924 -115.981931 258 13932ft 116kts
03-Apr-18 16:29 47.878202 -116.027692 258 13903ft 116kts
03-Apr-18 16:30 47.869629 -116.072503 258 13938ft 113kts
03-Apr-18 16:31 47.861078 -116.117125 258 14004ft 112kts
03-Apr-18 16:32 47.852478 -116.161932 258 14032ft 113kts
03-Apr-18 16:33 47.843875 -116.206656 258 14048ft 113kts
03-Apr-18 16:34 47.835186 -116.251704 258 14062ft 113kts
03-Apr-18 16:35 47.826337 -116.297506 258 14055ft 115kts
03-Apr-18 16:36 47.818910 -116.335804 258 14063ft 116kts
03-Apr-18 16:37 47.810004 -116.381654 258 14073ft 116kts
03-Apr-18 16:38 47.801084 -116.427479 258 14078ft 116kts
03-Apr-18 16:39 47.790638 -116.481012 258 14069ft 116kts
03-Apr-18 16:40 47.781206 -116.529498 257 13600ft 132kts
03-Apr-18 16:41 47.771106 -116.581081 256 13069ft 133kts
03-Apr-18 16:42 47.762522 -116.624779 256 12635ft 133kts
03-Apr-18 16:43 47.754947 -116.663223 255 12274ft 132kts
03-Apr-18 16:44 47.744894 -116.714096 254 12043ft 122kts
03-Apr-18 16:45 47.735625 -116.760755 254 12019ft 118kts
03-Apr-18 16:46 47.726378 -116.807241 254 12017ft 117kts
03-Apr-18 16:47 47.718176 -116.854120 256 11996ft 118kts
03-Apr-18 16:48 47.709564 -116.900789 254 12004ft 118kts
03-Apr-18 16:49 47.700366 -116.947258 254 12007ft 118kts
03-Apr-18 16:50 47.691091 -116.993738 254 12009ft 118kts
03-Apr-18 16:51 47.681801 -117.040165 254 12006ft 118kts
03-Apr-18 16:52 47.678682 -117.088460 274 11669ft 128kts
03-Apr-18 16:53 47.684048 -117.139906 274 10903ft 129kts
03-Apr-18 16:54 47.689640 -117.191638 274 10053ft 124kts
03-Apr-18 16:55 47.694695 -117.236053 274 9137ft 109kts
03-Apr-18 16:56 47.699699 -117.278529 273 8184ft 101kts
03-Apr-18 16:57 47.695128 -117.319217 256 7160ft 101kts
03-Apr-18 16:58 47.690675 -117.356612 258 6101ft 86kts
03-Apr-18 16:59 47.686951 -117.391492 259 5136ft 85kts
03-Apr-18 17:00 47.682555 -117.425409 252 4095ft 83kts
03-Apr-18 17:01 47.674293 -117.451609 232 3402ft 68kts
03-Apr-18 17:02 47.660858 -117.472944 224 3030ft 73kts
03-Apr-18 17:03 47.646869 -117.494489 226 2733ft 72kts
03-Apr-18 17:04 47.633567 -117.514686 225 2421ft 62kts
03-Apr-18 17:05 47.627053 -117.524052 150 2344ft 7kts
03-Apr-18 17:06 47.625849 -117.522956 210 2344ft 9kts
03-Apr-18 17:07 47.624079 -117.524525 250 2349ft 0kts
03-Apr-18 17:08 47.632346 -117.516483 226 2371ft 64kts

Navigation Log

Ident Type
Flight plan parsing failed, navigation log unavailable